Karlovac, Croatia
Current Conditions -  °F | °C
As of 4:30 PM on Monday 26 Jan 2015 (Local Time) from LJCE Reporting Station
Few Clouds Few Clouds  
Wind Chill: 34°   Ceiling: Unl
Heat Index: 39°   Visibility: 6mi
Dew Point: 27°   Wind: 7mph
Humidity: 61%   Direction: 110°ESE
Pressure: 30.21"   Gusts: NA
Location:  45.5°N, 15.54°E
Report Text: LJCE 261430Z AUTO 11006KT 9999 FEW036/// 04/M03 Q1023
Loading
Personal Weather Stations






























Interactive Weather Map New forecast layout! Learn more

10-Day Weather Forecast

Advertisements
Track Severe Weather on mobile